sensor_id;sensor_type;location;lat;lon;timestamp;temperature;humidity
15409;DHT22;7803;48.130;13.788;2023-04-03T00:02:53;21.30;71.60
15409;DHT22;7803;48.130;13.788;2023-04-03T00:05:55;21.30;71.60
15409;DHT22;7803;48.130;13.788;2023-04-03T00:08:57;21.30;71.60
15409;DHT22;7803;48.130;13.788;2023-04-03T00:11:59;21.30;71.60
15409;DHT22;7803;48.130;13.788;2023-04-03T00:15:03;21.20;71.50
15409;DHT22;7803;48.130;13.788;2023-04-03T00:18:06;21.20;71.50
15409;DHT22;7803;48.130;13.788;2023-04-03T00:21:10;21.20;71.50
15409;DHT22;7803;48.130;13.788;2023-04-03T00:24:13;21.20;71.50
15409;DHT22;7803;48.130;13.788;2023-04-03T00:27:15;21.20;71.50
15409;DHT22;7803;48.130;13.788;2023-04-03T00:30:20;21.20;71.50
15409;DHT22;7803;48.130;13.788;2023-04-03T00:33:23;21.20;71.50
15409;DHT22;7803;48.130;13.788;2023-04-03T00:36:25;21.20;71.40
15409;DHT22;7803;48.130;13.788;2023-04-03T00:39:27;21.20;71.50
15409;DHT22;7803;48.130;13.788;2023-04-03T00:42:29;21.20;71.50
15409;DHT22;7803;48.130;13.788;2023-04-03T00:45:35;21.20;71.50
15409;DHT22;7803;48.130;13.788;2023-04-03T00:48:40;21.20;71.50
15409;DHT22;7803;48.130;13.788;2023-04-03T00:51:43;21.20;71.50
15409;DHT22;7803;48.130;13.788;2023-04-03T00:54:47;21.20;71.50
15409;DHT22;7803;48.130;13.788;2023-04-03T00:57:51;21.20;71.60
15409;DHT22;7803;48.130;13.788;2023-04-03T01:00:58;21.10;71.50
15409;DHT22;7803;48.130;13.788;2023-04-03T01:04:00;21.20;71.60
15409;DHT22;7803;48.130;13.788;2023-04-03T01:07:05;21.20;71.50
15409;DHT22;7803;48.130;13.788;2023-04-03T01:10:10;21.10;71.40
15409;DHT22;7803;48.130;13.788;2023-04-03T01:13:20;21.20;71.50
15409;DHT22;7803;48.130;13.788;2023-04-03T01:16:23;21.20;71.50
15409;DHT22;7803;48.130;13.788;2023-04-03T01:19:25;21.10;71.40
15409;DHT22;7803;48.130;13.788;2023-04-03T01:22:30;21.10;71.50
15409;DHT22;7803;48.130;13.788;2023-04-03T01:25:37;21.10;71.60
15409;DHT22;7803;48.130;13.788;2023-04-03T01:28:40;21.10;71.60
15409;DHT22;7803;48.130;13.788;2023-04-03T01:31:50;21.10;71.50
15409;DHT22;7803;48.130;13.788;2023-04-03T01:34:52;21.10;71.60
15409;DHT22;7803;48.130;13.788;2023-04-03T01:37:54;21.10;71.60
15409;DHT22;7803;48.130;13.788;2023-04-03T01:40:56;21.10;71.60
15409;DHT22;7803;48.130;13.788;2023-04-03T01:43:58;21.10;71.50
15409;DHT22;7803;48.130;13.788;2023-04-03T01:47:04;21.10;71.50
15409;DHT22;7803;48.130;13.788;2023-04-03T01:50:07;21.10;71.60
15409;DHT22;7803;48.130;13.788;2023-04-03T01:53:10;21.00;71.40
15409;DHT22;7803;48.130;13.788;2023-04-03T01:56:12;21.00;71.50
15409;DHT22;7803;48.130;13.788;2023-04-03T01:59:14;21.10;71.60
15409;DHT22;7803;48.130;13.788;2023-04-03T02:02:19;21.00;71.40
15409;DHT22;7803;48.130;13.788;2023-04-03T02:05:21;21.00;71.50
15409;DHT22;7803;48.130;13.788;2023-04-03T02:08:23;21.00;71.50
15409;DHT22;7803;48.130;13.788;2023-04-03T02:11:25;21.00;71.50
15409;DHT22;7803;48.130;13.788;2023-04-03T02:14:27;21.00;71.60
15409;DHT22;7803;48.130;13.788;2023-04-03T02:17:30;21.00;71.50
15409;DHT22;7803;48.130;13.788;2023-04-03T02:20:33;21.00;71.60
15409;DHT22;7803;48.130;13.788;2023-04-03T02:23:35;21.00;71.50
15409;DHT22;7803;48.130;13.788;2023-04-03T02:26:37;21.00;71.50
15409;DHT22;7803;48.130;13.788;2023-04-03T02:29:39;21.00;71.50
15409;DHT22;7803;48.130;13.788;2023-04-03T02:32:43;21.00;71.50
15409;DHT22;7803;48.130;13.788;2023-04-03T02:35:45;21.00;71.50
15409;DHT22;7803;48.130;13.788;2023-04-03T02:38:53;21.00;71.50
15409;DHT22;7803;48.130;13.788;2023-04-03T02:41:55;21.00;71.50
15409;DHT22;7803;48.130;13.788;2023-04-03T02:44:57;21.00;71.60
15409;DHT22;7803;48.130;13.788;2023-04-03T02:48:02;21.00;71.60
15409;DHT22;7803;48.130;13.788;2023-04-03T02:51:05;21.00;71.60
15409;DHT22;7803;48.130;13.788;2023-04-03T02:54:07;21.00;71.60
15409;DHT22;7803;48.130;13.788;2023-04-03T02:57:09;21.00;71.60
15409;DHT22;7803;48.130;13.788;2023-04-03T03:00:12;20.90;71.60
15409;DHT22;7803;48.130;13.788;2023-04-03T03:03:16;20.90;71.40
15409;DHT22;7803;48.130;13.788;2023-04-03T03:06:18;21.00;71.40
15409;DHT22;7803;48.130;13.788;2023-04-03T03:09:20;21.00;71.60
15409;DHT22;7803;48.130;13.788;2023-04-03T03:12:22;21.00;71.50
15409;DHT22;7803;48.130;13.788;2023-04-03T03:15:25;21.00;71.50
15409;DHT22;7803;48.130;13.788;2023-04-03T03:18:29;21.00;71.60
15409;DHT22;7803;48.130;13.788;2023-04-03T03:21:31;21.00;71.60
15409;DHT22;7803;48.130;13.788;2023-04-03T03:24:33;20.90;71.60
15409;DHT22;7803;48.130;13.788;2023-04-03T03:27:35;20.90;71.40
15409;DHT22;7803;48.130;13.788;2023-04-03T03:30:37;20.90;71.30
15409;DHT22;7803;48.130;13.788;2023-04-03T03:33:41;20.90;71.30
15409;DHT22;7803;48.130;13.788;2023-04-03T03:36:43;20.90;71.30
15409;DHT22;7803;48.130;13.788;2023-04-03T03:39:45;20.90;71.40
15409;DHT22;7803;48.130;13.788;2023-04-03T03:42:47;20.90;71.30
15409;DHT22;7803;48.130;13.788;2023-04-03T03:45:50;20.90;71.30
15409;DHT22;7803;48.130;13.788;2023-04-03T03:48:55;20.90;71.20
15409;DHT22;7803;48.130;13.788;2023-04-03T03:51:57;21.00;71.20
15409;DHT22;7803;48.130;13.788;2023-04-03T03:54:59;20.90;71.10
15409;DHT22;7803;48.130;13.788;2023-04-03T03:58:01;21.00;71.10
15409;DHT22;7803;48.130;13.788;2023-04-03T04:01:05;20.90;71.00
15409;DHT22;7803;48.130;13.788;2023-04-03T04:04:09;21.00;71.10
15409;DHT22;7803;48.130;13.788;2023-04-03T04:07:11;21.00;71.10
15409;DHT22;7803;48.130;13.788;2023-04-03T04:10:13;21.00;71.00
15409;DHT22;7803;48.130;13.788;2023-04-03T04:13:15;21.00;71.00
15409;DHT22;7803;48.130;13.788;2023-04-03T04:16:17;21.00;71.00
15409;DHT22;7803;48.130;13.788;2023-04-03T04:19:20;21.10;70.90
15409;DHT22;7803;48.130;13.788;2023-04-03T04:22:23;21.10;70.90
15409;DHT22;7803;48.130;13.788;2023-04-03T04:25:25;21.10;70.80
15409;DHT22;7803;48.130;13.788;2023-04-03T04:28:27;21.10;70.70
15409;DHT22;7803;48.130;13.788;2023-04-03T04:31:29;21.10;70.70
15409;DHT22;7803;48.130;13.788;2023-04-03T04:34:32;21.20;70.80
15409;DHT22;7803;48.130;13.788;2023-04-03T04:37:34;21.20;70.80
15409;DHT22;7803;48.130;13.788;2023-04-03T04:40:36;21.20;70.80
15409;DHT22;7803;48.130;13.788;2023-04-03T04:43:38;21.20;70.70
15409;DHT22;7803;48.130;13.788;2023-04-03T04:46:40;21.20;70.70
15409;DHT22;7803;48.130;13.788;2023-04-03T04:49:45;21.20;70.70
15409;DHT22;7803;48.130;13.788;2023-04-03T04:52:48;21.20;70.60
15409;DHT22;7803;48.130;13.788;2023-04-03T04:55:51;21.20;70.60
15409;DHT22;7803;48.130;13.788;2023-04-03T04:58:53;21.30;70.70
15409;DHT22;7803;48.130;13.788;2023-04-03T05:01:55;21.30;70.50
15409;DHT22;7803;48.130;13.788;2023-04-03T05:04:59;21.30;70.50
15409;DHT22;7803;48.130;13.788;2023-04-03T05:08:01;21.30;70.50
15409;DHT22;7803;48.130;13.788;2023-04-03T05:11:03;21.30;70.40
15409;DHT22;7803;48.130;13.788;2023-04-03T05:14:05;21.30;70.50
15409;DHT22;7803;48.130;13.788;2023-04-03T05:17:08;21.30;70.40
15409;DHT22;7803;48.130;13.788;2023-04-03T05:20:12;21.30;70.50
15409;DHT22;7803;48.130;13.788;2023-04-03T05:23:14;21.40;70.50
15409;DHT22;7803;48.130;13.788;2023-04-03T05:26:16;21.40;70.50
15409;DHT22;7803;48.130;13.788;2023-04-03T05:29:18;21.30;70.40
15409;DHT22;7803;48.130;13.788;2023-04-03T05:32:20;21.40;70.50
15409;DHT22;7803;48.130;13.788;2023-04-03T05:35:23;21.40;70.50
15409;DHT22;7803;48.130;13.788;2023-04-03T05:38:25;21.40;70.40
15409;DHT22;7803;48.130;13.788;2023-04-03T05:41:29;21.40;70.30
15409;DHT22;7803;48.130;13.788;2023-04-03T05:44:31;21.40;70.30
15409;DHT22;7803;48.130;13.788;2023-04-03T05:47:33;21.40;70.30
15409;DHT22;7803;48.130;13.788;2023-04-03T05:50:37;21.40;70.30
15409;DHT22;7803;48.130;13.788;2023-04-03T05:53:42;21.40;70.30
15409;DHT22;7803;48.130;13.788;2023-04-03T05:56:45;21.40;70.30
15409;DHT22;7803;48.130;13.788;2023-04-03T05:59:47;21.50;70.30
15409;DHT22;7803;48.130;13.788;2023-04-03T06:02:49;21.50;70.30
15409;DHT22;7803;48.130;13.788;2023-04-03T06:05:53;21.50;70.30
15409;DHT22;7803;48.130;13.788;2023-04-03T06:08:55;21.50;70.20
15409;DHT22;7803;48.130;13.788;2023-04-03T06:11:57;21.50;70.20
15409;DHT22;7803;48.130;13.788;2023-04-03T06:15:00;21.50;70.20
15409;DHT22;7803;48.130;13.788;2023-04-03T06:18:02;21.50;70.20
15409;DHT22;7803;48.130;13.788;2023-04-03T06:21:06;21.50;70.10
15409;DHT22;7803;48.130;13.788;2023-04-03T06:24:09;21.50;70.10
15409;DHT22;7803;48.130;13.788;2023-04-03T06:27:11;21.50;70.10
15409;DHT22;7803;48.130;13.788;2023-04-03T06:30:14;21.50;70.10
15409;DHT22;7803;48.130;13.788;2023-04-03T06:33:16;21.50;70.10
15409;DHT22;7803;48.130;13.788;2023-04-03T06:36:20;21.60;70.10
15409;DHT22;7803;48.130;13.788;2023-04-03T06:39:22;21.50;70.10
15409;DHT22;7803;48.130;13.788;2023-04-03T06:42:24;21.60;70.10
15409;DHT22;7803;48.130;13.788;2023-04-03T06:45:27;21.60;70.10
15409;DHT22;7803;48.130;13.788;2023-04-03T06:48:29;21.60;70.10
15409;DHT22;7803;48.130;13.788;2023-04-03T06:51:32;21.60;70.10
15409;DHT22;7803;48.130;13.788;2023-04-03T06:54:35;21.60;70.00
15409;DHT22;7803;48.130;13.788;2023-04-03T06:57:37;21.60;70.00
15409;DHT22;7803;48.130;13.788;2023-04-03T07:00:39;21.60;70.00
15409;DHT22;7803;48.130;13.788;2023-04-03T07:03:41;21.60;70.00
15409;DHT22;7803;48.130;13.788;2023-04-03T07:06:45;21.60;69.90
15409;DHT22;7803;48.130;13.788;2023-04-03T07:09:47;21.60;70.00
15409;DHT22;7803;48.130;13.788;2023-04-03T07:12:49;21.60;70.00
15409;DHT22;7803;48.130;13.788;2023-04-03T07:15:52;21.70;70.00
15409;DHT22;7803;48.130;13.788;2023-04-03T07:18:54;21.60;69.90
15409;DHT22;7803;48.130;13.788;2023-04-03T07:21:58;21.60;69.90
15409;DHT22;7803;48.130;13.788;2023-04-03T07:25:00;21.70;70.00
15409;DHT22;7803;48.130;13.788;2023-04-03T07:28:03;21.70;69.90
15409;DHT22;7803;48.130;13.788;2023-04-03T07:31:07;21.70;70.00
15409;DHT22;7803;48.130;13.788;2023-04-03T07:34:11;21.70;69.90
15409;DHT22;7803;48.130;13.788;2023-04-03T07:37:16;21.70;69.90
15409;DHT22;7803;48.130;13.788;2023-04-03T07:40:18;21.70;70.10
15409;DHT22;7803;48.130;13.788;2023-04-03T07:43:22;21.70;69.90
15409;DHT22;7803;48.130;13.788;2023-04-03T07:46:25;21.70;69.80
15409;DHT22;7803;48.130;13.788;2023-04-03T07:49:27;21.70;69.90
15409;DHT22;7803;48.130;13.788;2023-04-03T07:52:31;21.70;69.90
15409;DHT22;7803;48.130;13.788;2023-04-03T07:55:33;21.70;69.80
15409;DHT22;7803;48.130;13.788;2023-04-03T07:58:37;21.70;69.80
15409;DHT22;7803;48.130;13.788;2023-04-03T08:01:39;21.70;69.80
15409;DHT22;7803;48.130;13.788;2023-04-03T08:04:42;21.70;69.90
15409;DHT22;7803;48.130;13.788;2023-04-03T08:07:45;21.70;69.80
15409;DHT22;7803;48.130;13.788;2023-04-03T08:10:49;21.70;69.80
15409;DHT22;7803;48.130;13.788;2023-04-03T08:13:51;21.70;69.80
15409;DHT22;7803;48.130;13.788;2023-04-03T08:16:53;21.80;69.80
15409;DHT22;7803;48.130;13.788;2023-04-03T08:19:56;21.80;69.80
15409;DHT22;7803;48.130;13.788;2023-04-03T08:22:59;21.70;69.80
15409;DHT22;7803;48.130;13.788;2023-04-03T08:26:06;21.80;69.80
15409;DHT22;7803;48.130;13.788;2023-04-03T08:29:09;21.80;69.80
15409;DHT22;7803;48.130;13.788;2023-04-03T08:32:11;21.80;69.80
15409;DHT22;7803;48.130;13.788;2023-04-03T08:35:13;21.80;69.80
15409;DHT22;7803;48.130;13.788;2023-04-03T08:38:16;21.80;69.80
15409;DHT22;7803;48.130;13.788;2023-04-03T08:41:25;21.70;69.80
15409;DHT22;7803;48.130;13.788;2023-04-03T08:44:38;21.80;69.80
15409;DHT22;7803;48.130;13.788;2023-04-03T08:47:45;21.80;69.80
15409;DHT22;7803;48.130;13.788;2023-04-03T08:50:51;21.80;69.80
15409;DHT22;7803;48.130;13.788;2023-04-03T08:54:00;21.80;69.80
15409;DHT22;7803;48.130;13.788;2023-04-03T08:57:05;21.80;69.80
15409;DHT22;7803;48.130;13.788;2023-04-03T09:00:16;21.80;69.70
15409;DHT22;7803;48.130;13.788;2023-04-03T09:03:20;21.80;69.80
15409;DHT22;7803;48.130;13.788;2023-04-03T09:06:26;21.80;69.80
15409;DHT22;7803;48.130;13.788;2023-04-03T09:09:35;21.80;69.80
15409;DHT22;7803;48.130;13.788;2023-04-03T09:12:43;21.80;69.70
15409;DHT22;7803;48.130;13.788;2023-04-03T09:15:47;21.80;69.70
15409;DHT22;7803;48.130;13.788;2023-04-03T09:18:53;21.80;69.70
15409;DHT22;7803;48.130;13.788;2023-04-03T09:21:58;21.80;69.60
15409;DHT22;7803;48.130;13.788;2023-04-03T09:25:10;21.80;69.60
15409;DHT22;7803;48.130;13.788;2023-04-03T09:28:13;21.80;69.60
15409;DHT22;7803;48.130;13.788;2023-04-03T09:31:20;21.80;69.60
15409;DHT22;7803;48.130;13.788;2023-04-03T09:34:24;21.90;69.60
15409;DHT22;7803;48.130;13.788;2023-04-03T09:37:40;21.80;69.60
15409;DHT22;7803;48.130;13.788;2023-04-03T09:40:46;21.80;69.50
15409;DHT22;7803;48.130;13.788;2023-04-03T09:43:53;21.80;69.50
15409;DHT22;7803;48.130;13.788;2023-04-03T09:46:56;21.80;69.50
15409;DHT22;7803;48.130;13.788;2023-04-03T09:50:19;21.90;69.60
15409;DHT22;7803;48.130;13.788;2023-04-03T09:53:28;21.80;69.50
15409;DHT22;7803;48.130;13.788;2023-04-03T09:56:32;21.80;69.40
15409;DHT22;7803;48.130;13.788;2023-04-03T09:59:36;21.90;69.50
15409;DHT22;7803;48.130;13.788;2023-04-03T10:02:39;21.80;69.50
15409;DHT22;7803;48.130;13.788;2023-04-03T10:05:42;21.90;69.50
15409;DHT22;7803;48.130;13.788;2023-04-03T10:08:58;21.90;69.50
15409;DHT22;7803;48.130;13.788;2023-04-03T10:12:04;21.90;69.50
15409;DHT22;7803;48.130;13.788;2023-04-03T10:15:12;21.90;69.40
15409;DHT22;7803;48.130;13.788;2023-04-03T10:18:29;21.90;69.40
15409;DHT22;7803;48.130;13.788;2023-04-03T10:21:40;21.90;69.40
15409;DHT22;7803;48.130;13.788;2023-04-03T10:24:52;21.90;69.40
15409;DHT22;7803;48.130;13.788;2023-04-03T10:27:59;21.90;69.40
15409;DHT22;7803;48.130;13.788;2023-04-03T10:31:06;21.90;69.40
15409;DHT22;7803;48.130;13.788;2023-04-03T10:34:20;22.00;69.40
15409;DHT22;7803;48.130;13.788;2023-04-03T10:37:26;21.90;69.30
15409;DHT22;7803;48.130;13.788;2023-04-03T10:40:33;21.90;70.30
15409;DHT22;7803;48.130;13.788;2023-04-03T10:43:44;21.90;69.40
15409;DHT22;7803;48.130;13.788;2023-04-03T10:46:55;21.90;69.30
15409;DHT22;7803;48.130;13.788;2023-04-03T10:50:10;21.90;69.40
15409;DHT22;7803;48.130;13.788;2023-04-03T10:53:23;22.00;69.40
15409;DHT22;7803;48.130;13.788;2023-04-03T10:56:32;22.00;69.40
15409;DHT22;7803;48.130;13.788;2023-04-03T10:59:42;22.00;69.30
15409;DHT22;7803;48.130;13.788;2023-04-03T11:02:49;22.00;69.30
15409;DHT22;7803;48.130;13.788;2023-04-03T11:05:54;22.00;69.30
15409;DHT22;7803;48.130;13.788;2023-04-03T11:09:00;22.00;69.30
15409;DHT22;7803;48.130;13.788;2023-04-03T11:12:09;22.00;69.30
15409;DHT22;7803;48.130;13.788;2023-04-03T11:15:16;22.00;69.30
15409;DHT22;7803;48.130;13.788;2023-04-03T11:18:22;22.00;69.30
15409;DHT22;7803;48.130;13.788;2023-04-03T11:21:29;22.00;69.30
15409;DHT22;7803;48.130;13.788;2023-04-03T11:24:33;22.00;69.20
15409;DHT22;7803;48.130;13.788;2023-04-03T11:27:41;22.00;69.20
15409;DHT22;7803;48.130;13.788;2023-04-03T11:30:50;22.00;69.20
15409;DHT22;7803;48.130;13.788;2023-04-03T11:34:02;22.00;69.20
15409;DHT22;7803;48.130;13.788;2023-04-03T11:37:13;22.00;69.10
15409;DHT22;7803;48.130;13.788;2023-04-03T11:40:22;22.00;69.10
15409;DHT22;7803;48.130;13.788;2023-04-03T11:43:27;22.00;69.10
15409;DHT22;7803;48.130;13.788;2023-04-03T11:46:54;22.00;69.10
15409;DHT22;7803;48.130;13.788;2023-04-03T11:49:58;22.00;69.10
15409;DHT22;7803;48.130;13.788;2023-04-03T11:53:09;22.00;69.10
15409;DHT22;7803;48.130;13.788;2023-04-03T11:56:30;22.00;69.10
15409;DHT22;7803;48.130;13.788;2023-04-03T11:59:37;22.00;69.10
15409;DHT22;7803;48.130;13.788;2023-04-03T12:02:40;22.00;69.10
15409;DHT22;7803;48.130;13.788;2023-04-03T12:05:42;22.10;69.10
15409;DHT22;7803;48.130;13.788;2023-04-03T12:08:46;22.10;69.10
15409;DHT22;7803;48.130;13.788;2023-04-03T12:11:48;22.00;69.10
15409;DHT22;7803;48.130;13.788;2023-04-03T12:14:51;22.00;69.10
15409;DHT22;7803;48.130;13.788;2023-04-03T12:17:55;22.00;69.10
15409;DHT22;7803;48.130;13.788;2023-04-03T12:20:58;22.10;69.20
15409;DHT22;7803;48.130;13.788;2023-04-03T12:24:22;22.10;69.10
15409;DHT22;7803;48.130;13.788;2023-04-03T12:27:28;22.10;69.10
15409;DHT22;7803;48.130;13.788;2023-04-03T12:30:35;22.00;69.00
15409;DHT22;7803;48.130;13.788;2023-04-03T12:33:52;22.10;69.10
15409;DHT22;7803;48.130;13.788;2023-04-03T12:37:02;22.10;69.10
15409;DHT22;7803;48.130;13.788;2023-04-03T12:40:15;22.10;69.10
15409;DHT22;7803;48.130;13.788;2023-04-03T12:43:29;22.00;69.10
15409;DHT22;7803;48.130;13.788;2023-04-03T12:46:37;22.10;69.20
15409;DHT22;7803;48.130;13.788;2023-04-03T12:49:43;22.10;69.10
15409;DHT22;7803;48.130;13.788;2023-04-03T12:52:50;22.10;69.10
15409;DHT22;7803;48.130;13.788;2023-04-03T12:55:54;22.10;69.10
15409;DHT22;7803;48.130;13.788;2023-04-03T12:59:13;22.00;69.10
15409;DHT22;7803;48.130;13.788;2023-04-03T13:02:24;22.10;69.10
15409;DHT22;7803;48.130;13.788;2023-04-03T13:05:30;22.10;69.10
15409;DHT22;7803;48.130;13.788;2023-04-03T13:08:33;22.00;69.10
15409;DHT22;7803;48.130;13.788;2023-04-03T13:11:37;22.10;69.10
15409;DHT22;7803;48.130;13.788;2023-04-03T13:14:49;22.10;69.10
15409;DHT22;7803;48.130;13.788;2023-04-03T13:17:53;22.10;69.10
15409;DHT22;7803;48.130;13.788;2023-04-03T13:21:01;22.10;69.10
15409;DHT22;7803;48.130;13.788;2023-04-03T13:24:05;22.10;69.10
15409;DHT22;7803;48.130;13.788;2023-04-03T13:27:09;22.00;69.10
15409;DHT22;7803;48.130;13.788;2023-04-03T13:30:29;22.10;69.10
15409;DHT22;7803;48.130;13.788;2023-04-03T13:33:33;22.10;69.10
15409;DHT22;7803;48.130;13.788;2023-04-03T13:36:41;22.10;69.10
15409;DHT22;7803;48.130;13.788;2023-04-03T13:39:45;22.10;69.10
15409;DHT22;7803;48.130;13.788;2023-04-03T13:43:00;22.10;69.10
15409;DHT22;7803;48.130;13.788;2023-04-03T13:46:05;22.10;69.10
15409;DHT22;7803;48.130;13.788;2023-04-03T13:49:27;22.00;69.00
15409;DHT22;7803;48.130;13.788;2023-04-03T13:52:38;22.10;69.10
15409;DHT22;7803;48.130;13.788;2023-04-03T13:55:55;22.10;69.00
15409;DHT22;7803;48.130;13.788;2023-04-03T13:59:05;22.10;69.10
15409;DHT22;7803;48.130;13.788;2023-04-03T14:02:15;22.10;69.00
15409;DHT22;7803;48.130;13.788;2023-04-03T14:05:17;22.10;69.00
15409;DHT22;7803;48.130;13.788;2023-04-03T14:08:23;22.10;69.00
15409;DHT22;7803;48.130;13.788;2023-04-03T14:11:28;22.10;69.00
15409;DHT22;7803;48.130;13.788;2023-04-03T14:14:33;22.10;69.00
15409;DHT22;7803;48.130;13.788;2023-04-03T14:17:36;22.10;69.00
15409;DHT22;7803;48.130;13.788;2023-04-03T14:20:38;22.10;69.00
15409;DHT22;7803;48.130;13.788;2023-04-03T14:23:41;22.10;69.10
15409;DHT22;7803;48.130;13.788;2023-04-03T14:26:44;22.10;69.00
15409;DHT22;7803;48.130;13.788;2023-04-03T14:29:46;22.10;69.00
15409;DHT22;7803;48.130;13.788;2023-04-03T14:32:49;22.10;68.90
15409;DHT22;7803;48.130;13.788;2023-04-03T14:35:51;22.10;68.90
15409;DHT22;7803;48.130;13.788;2023-04-03T14:38:55;22.10;69.10
15409;DHT22;7803;48.130;13.788;2023-04-03T14:41:57;22.10;68.90
15409;DHT22;7803;48.130;13.788;2023-04-03T14:45:00;22.10;68.90
15409;DHT22;7803;48.130;13.788;2023-04-03T14:48:04;22.10;69.00
15409;DHT22;7803;48.130;13.788;2023-04-03T14:51:06;22.10;68.90
15409;DHT22;7803;48.130;13.788;2023-04-03T14:54:13;22.10;68.90
15409;DHT22;7803;48.130;13.788;2023-04-03T14:57:16;22.10;68.90
15409;DHT22;7803;48.130;13.788;2023-04-03T15:00:21;22.10;68.90
15409;DHT22;7803;48.130;13.788;2023-04-03T15:03:23;22.10;68.90
15409;DHT22;7803;48.130;13.788;2023-04-03T15:06:25;22.10;68.90
15409;DHT22;7803;48.130;13.788;2023-04-03T15:09:29;22.10;68.90
15409;DHT22;7803;48.130;13.788;2023-04-03T15:12:31;22.10;69.80
15409;DHT22;7803;48.130;13.788;2023-04-03T15:15:34;22.20;68.90
15409;DHT22;7803;48.130;13.788;2023-04-03T15:18:38;22.10;68.90
15409;DHT22;7803;48.130;13.788;2023-04-03T15:21:40;22.10;68.90
15409;DHT22;7803;48.130;13.788;2023-04-03T15:24:44;22.20;68.90
15409;DHT22;7803;48.130;13.788;2023-04-03T15:27:46;22.20;68.90
15409;DHT22;7803;48.130;13.788;2023-04-03T15:30:48;22.20;68.90
15409;DHT22;7803;48.130;13.788;2023-04-03T15:33:50;22.20;68.90
15409;DHT22;7803;48.130;13.788;2023-04-03T15:36:52;22.20;68.90
15409;DHT22;7803;48.130;13.788;2023-04-03T15:39:56;22.10;68.80
15409;DHT22;7803;48.130;13.788;2023-04-03T15:42:58;22.20;68.90
15409;DHT22;7803;48.130;13.788;2023-04-03T15:46:00;22.20;68.90
15409;DHT22;7803;48.130;13.788;2023-04-03T15:49:03;22.20;68.90
15409;DHT22;7803;48.130;13.788;2023-04-03T15:52:05;22.10;68.90
15409;DHT22;7803;48.130;13.788;2023-04-03T15:55:09;22.20;68.90
15409;DHT22;7803;48.130;13.788;2023-04-03T15:58:11;22.20;69.00
15409;DHT22;7803;48.130;13.788;2023-04-03T16:01:13;22.10;68.90
15409;DHT22;7803;48.130;13.788;2023-04-03T16:04:16;22.10;68.90
15409;DHT22;7803;48.130;13.788;2023-04-03T16:07:18;22.20;68.90
15409;DHT22;7803;48.130;13.788;2023-04-03T16:10:22;22.10;68.80
15409;DHT22;7803;48.130;13.788;2023-04-03T16:13:24;22.10;68.90
15409;DHT22;7803;48.130;13.788;2023-04-03T16:16:28;22.20;68.90
15409;DHT22;7803;48.130;13.788;2023-04-03T16:19:30;22.10;68.90
15409;DHT22;7803;48.130;13.788;2023-04-03T16:22:32;22.20;68.90
15409;DHT22;7803;48.130;13.788;2023-04-03T16:25:36;22.20;68.90
15409;DHT22;7803;48.130;13.788;2023-04-03T16:28:39;22.10;68.90
15409;DHT22;7803;48.130;13.788;2023-04-03T16:31:41;22.20;68.90
15409;DHT22;7803;48.130;13.788;2023-04-03T16:34:43;22.20;68.90
15409;DHT22;7803;48.130;13.788;2023-04-03T16:37:45;22.20;68.90
15409;DHT22;7803;48.130;13.788;2023-04-03T16:40:49;22.20;68.80
15409;DHT22;7803;48.130;13.788;2023-04-03T16:43:53;22.20;68.80
15409;DHT22;7803;48.130;13.788;2023-04-03T16:46:55;22.20;68.80
15409;DHT22;7803;48.130;13.788;2023-04-03T16:49:58;22.20;68.80
15409;DHT22;7803;48.130;13.788;2023-04-03T16:53:00;22.10;68.80
15409;DHT22;7803;48.130;13.788;2023-04-03T16:56:05;22.20;68.80
15409;DHT22;7803;48.130;13.788;2023-04-03T16:59:07;22.20;68.80
15409;DHT22;7803;48.130;13.788;2023-04-03T17:02:09;22.20;69.70
15409;DHT22;7803;48.130;13.788;2023-04-03T17:05:11;22.20;68.80
15409;DHT22;7803;48.130;13.788;2023-04-03T17:08:13;22.20;68.80
15409;DHT22;7803;48.130;13.788;2023-04-03T17:11:18;22.20;68.80
15409;DHT22;7803;48.130;13.788;2023-04-03T17:14:21;22.20;68.70
15409;DHT22;7803;48.130;13.788;2023-04-03T17:17:24;22.20;68.80
15409;DHT22;7803;48.130;13.788;2023-04-03T17:20:27;22.20;68.80
15409;DHT22;7803;48.130;13.788;2023-04-03T17:23:29;22.20;68.70
15409;DHT22;7803;48.130;13.788;2023-04-03T17:26:33;22.20;68.70
15409;DHT22;7803;48.130;13.788;2023-04-03T17:29:36;22.20;68.60
15409;DHT22;7803;48.130;13.788;2023-04-03T17:32:38;22.20;68.60
15409;DHT22;7803;48.130;13.788;2023-04-03T17:35:41;22.20;68.60
15409;DHT22;7803;48.130;13.788;2023-04-03T17:38:44;22.20;68.60
15409;DHT22;7803;48.130;13.788;2023-04-03T17:41:49;22.20;68.60
15409;DHT22;7803;48.130;13.788;2023-04-03T17:44:51;22.20;68.60
15409;DHT22;7803;48.130;13.788;2023-04-03T17:47:54;22.20;68.60
15409;DHT22;7803;48.130;13.788;2023-04-03T17:50:56;22.20;68.60
15409;DHT22;7803;48.130;13.788;2023-04-03T17:53:59;22.20;68.60
15409;DHT22;7803;48.130;13.788;2023-04-03T17:57:04;22.20;68.60
15409;DHT22;7803;48.130;13.788;2023-04-03T18:00:09;22.20;68.50
15409;DHT22;7803;48.130;13.788;2023-04-03T18:03:15;22.20;68.50
15409;DHT22;7803;48.130;13.788;2023-04-03T18:06:19;22.20;68.50
15409;DHT22;7803;48.130;13.788;2023-04-03T18:09:26;22.20;68.50
15409;DHT22;7803;48.130;13.788;2023-04-03T18:12:32;22.20;68.50
15409;DHT22;7803;48.130;13.788;2023-04-03T18:15:35;22.20;68.40
15409;DHT22;7803;48.130;13.788;2023-04-03T18:18:43;22.20;68.40
15409;DHT22;7803;48.130;13.788;2023-04-03T18:21:47;22.20;68.40
15409;DHT22;7803;48.130;13.788;2023-04-03T18:24:50;22.20;68.40
15409;DHT22;7803;48.130;13.788;2023-04-03T18:27:55;22.20;68.40
15409;DHT22;7803;48.130;13.788;2023-04-03T18:31:00;22.20;68.40
15409;DHT22;7803;48.130;13.788;2023-04-03T18:34:03;22.20;68.40
15409;DHT22;7803;48.130;13.788;2023-04-03T18:37:06;22.30;68.40
15409;DHT22;7803;48.130;13.788;2023-04-03T18:40:10;22.20;68.40
15409;DHT22;7803;48.130;13.788;2023-04-03T18:43:16;22.20;68.40
15409;DHT22;7803;48.130;13.788;2023-04-03T18:46:21;22.20;68.40
15409;DHT22;7803;48.130;13.788;2023-04-03T18:49:34;22.20;68.40
15409;DHT22;7803;48.130;13.788;2023-04-03T18:52:38;22.20;68.40
15409;DHT22;7803;48.130;13.788;2023-04-03T18:55:41;22.20;68.30
15409;DHT22;7803;48.130;13.788;2023-04-03T18:58:46;22.30;68.40
15409;DHT22;7803;48.130;13.788;2023-04-03T19:01:49;22.20;68.30
15409;DHT22;7803;48.130;13.788;2023-04-03T19:04:52;22.30;68.40
15409;DHT22;7803;48.130;13.788;2023-04-03T19:07:58;22.20;68.30
15409;DHT22;7803;48.130;13.788;2023-04-03T19:11:02;22.20;69.20
15409;DHT22;7803;48.130;13.788;2023-04-03T19:14:07;22.20;68.30
15409;DHT22;7803;48.130;13.788;2023-04-03T19:17:10;22.30;68.40
15409;DHT22;7803;48.130;13.788;2023-04-03T19:20:13;22.30;68.30
15409;DHT22;7803;48.130;13.788;2023-04-03T19:23:17;22.20;68.30
15409;DHT22;7803;48.130;13.788;2023-04-03T19:26:20;22.20;68.30